Latest Weather Observations for Lake Macquarie - Cooranbong

IDN60901

Issued at 3:51 pm EST Saturday 28 May 2016 (issued every 10 minutes, with the page automatically refreshed every 10 minutes)

About weather observations | Map of Sydney area stations | Latest observations for Sydney area | Other Formats
Station Details ID: 061412 Name: LAKE MACQUARIE AWS Lat: -33.09 Lon: 151.46 Height: 6.0 m
Data from the previous 72 hours. | See also: Recent months at Lake Macquarie - Cooranbong
Date/Time
EST
Tmp

°C
App
Tmp
°C
Dew
Point
°C
Rel
Hum
%
Delta-T

°C
Wind Press
QNH
hPa
Press
MSL
hPa
Rain
since
9 am
mm
Dir
 
Spd
km/h
Gust
km/h
Spd
kts
Gust
kts
28/03:30pm 17.2 12.4 0.4 32 7.3 W 15 30 8 16 1006.9 1006.9 0.0
28/03:00pm 17.3 12.5 0.5 32 7.3 W 15 28 8 15 1006.5 1006.5 0.0
28/02:30pm 17.4 12.5 -0.3 30 7.6 W 15 24 8 13 1006.0 1006.0 0.0
28/02:00pm 17.9 13.9 0.6 31 7.6 WNW 11 24 6 13 1005.9 1005.9 0.0
28/01:30pm 17.9 12.7 0.1 30 7.7 NW 17 30 9 16 1005.7 1005.7 0.0
28/01:00pm 17.6 12.9 1.2 33 7.3 W 15 26 8 14 1005.8 1005.8 0.0
28/12:30pm 17.3 13.3 2.9 38 6.6 NW 13 28 7 15 1005.9 1005.9 0.0
28/12:00pm 15.6 12.9 5.5 51 4.8 WNW 9 19 5 10 1006.4 1006.4 0.0
28/11:30am 15.2 12.5 5.4 52 4.6 NW 9 20 5 11 1006.9 1006.9 0.0
28/11:00am 15.3 12.7 6.1 54 4.4 NW 9 17 5 9 1007.2 1007.2 0.0
28/10:30am 15.0 12.3 5.8 54 4.4 WNW 9 20 5 11 1007.3 1007.3 0.0
28/10:00am 14.2 12.1 5.8 57 4.0 NW 6 11 3 6 1007.7 1007.7 0.0
28/09:30am 13.3 11.1 6.4 63 3.3 NNW 7 13 4 7 1008.0 1008.0 0.0
28/09:00am 12.7 10.2 6.5 66 3.0 NNW 9 22 5 12 1008.1 1008.1 0.0
28/08:30am 14.2 10.6 5.0 54 4.3 NW 13 24 7 13 1008.0 1008.0 0.0
28/08:00am 14.7 12.1 6.3 57 4.1 NW 9 24 5 13 1007.9 1007.9 0.0
28/07:55am 14.3 12.1 6.2 58 3.9 NW 7 24 4 13 1008.0 1008.0 0.0
28/07:30am 9.3 8.3 5.7 78 1.6 CALM 0 2 0 1 1008.1 1008.1 0.0
28/07:00am 8.4 6.6 5.5 82 1.3 W 4 7 2 4 1008.0 1008.0 0.0
28/06:30am 7.2 5.2 4.5 83 1.2 W 4 7 2 4 1007.8 1007.8 0.0
28/06:00am 5.5 3.3 3.5 87 0.8 N 4 6 2 3 1007.7 1007.7 0.0
28/05:30am 6.1 4.7 3.6 84 1.1 CALM 0 0 0 0 1008.0 1008.0 0.0
28/05:00am 6.7 5.4 3.9 82 1.2 CALM 0 0 0 0 1007.9 1007.9 0.0
28/04:30am 7.4 6.1 4.0 79 1.5 CALM 0 0 0 0 1007.8 1007.8 0.0
28/04:00am 6.9 4.5 2.4 73 1.9 NNW 4 6 2 3 1007.8 1007.8 0.0
28/03:30am 9.4 7.9 2.9 64 2.8 CALM 0 4 0 2 1007.7 1007.7 0.0
28/03:00am 10.5 8.5 4.4 66 2.7 N 4 9 2 5 1008.1 1008.1 0.0
28/02:30am 9.7 7.8 2.6 61 3.0 NNE 2 7 1 4 1008.3 1008.3 0.0
28/02:00am 12.3 10.0 2.5 51 4.3 NW 4 17 2 9 1008.4 1008.4 0.0
28/01:30am 13.0 9.4 2.8 50 4.5 NW 11 22 6 12 1008.4 1008.4 0.0
28/01:00am 12.8 9.9 2.4 49 4.5 NW 7 20 4 11 1008.4 1008.4 0.0
28/12:30am 12.6 9.8 1.9 48 4.6 NW 6 11 3 6 1008.3 1008.3 0.0
28/12:00am 12.8 10.0 1.8 47 4.7 WNW 6 11 3 6 1008.3 1008.3 0.0
 
Date/Time
EST
Tmp

°C
App
Tmp
°C
Dew
Point
°C
Rel
Hum
%
Delta-T

°C
Wind Press
QNH
hPa
Press
MSL
hPa
Rain
since
9 am
mm
Dir
 
Spd
km/h
Gust
km/h
Spd
kts
Gust
kts
27/11:30pm 13.1 10.2 1.5 45 5.0 WNW 6 13 3 7 1008.6 1008.6 0.0
27/11:00pm 13.4 10.3 1.1 43 5.3 WNW 7 15 4 8 1008.4 1008.4 0.0
27/10:30pm 13.7 9.3 0.4 40 5.6 W 13 26 7 14 1008.2 1008.2 0.0
27/10:00pm 13.8 9.4 0.1 39 5.7 WNW 13 30 7 16 1008.1 1008.1 0.0
27/09:30pm 13.5 9.7 -0.5 38 5.8 WNW 9 20 5 11 1008.1 1008.1 0.0
27/09:00pm 13.9 9.8 -0.5 37 6.0 WNW 11 20 6 11 1007.8 1007.8 0.0
27/08:30pm 13.9 10.4 -1.3 35 6.2 NW 7 19 4 10 1007.8 1007.8 0.0
27/08:00pm 14.3 10.4 -1.3 34 6.4 NW 9 17 5 9 1007.4 1007.4 0.0
27/07:30pm 14.5 10.2 -1.6 33 6.5 WNW 11 30 6 16 1007.0 1007.0 0.0
27/07:00pm 14.7 10.0 -1.8 32 6.7 WNW 13 20 7 11 1006.6 1006.6 0.0
27/06:30pm 14.9 10.5 -2.5 30 6.9 WNW 11 22 6 12 1006.1 1006.1 0.0
27/06:00pm 15.5 9.6 -2.4 29 7.2 WNW 19 35 10 19 1005.5 1005.5 0.0
27/05:30pm 15.7 11.3 -2.3 29 7.3 WNW 11 26 6 14 1005.1 1005.1 0.0
27/05:00pm 15.9 11.1 -2.6 28 7.5 WNW 13 26 7 14 1004.4 1004.4 0.0
27/04:30pm 16.7 11.5 -2.9 26 7.9 W 15 32 8 17 1004.0 1004.0 0.0
27/04:00pm 17.4 11.7 -3.4 24 8.4 WNW 17 37 9 20 1003.7 1003.7 0.0
27/03:30pm 18.7 14.3 -2.8 23 8.9 W 11 19 6 10 1003.1 1003.1 0.0
27/03:00pm 18.6 12.5 -3.5 22 9.0 W 19 35 10 19 1002.5 1002.5 0.0
27/02:30pm 19.3 14.5 -2.9 22 9.2 W 13 32 7 17 1002.4 1002.4 0.0
27/02:00pm 19.0 12.8 -3.2 22 9.1 W 20 37 11 20 1002.3 1002.3 0.0
27/01:30pm 18.7 12.5 -2.8 23 8.9 W 20 43 11 23 1002.4 1002.4 0.0
27/01:00pm 18.6 12.5 -2.3 24 8.7 WNW 20 35 11 19 1002.7 1002.7 0.0
27/12:30pm 18.9 13.8 -2.1 24 8.8 WNW 15 26 8 14 1002.7 1002.7 0.0
27/12:00pm 18.4 12.9 -2.0 25 8.6 WNW 17 33 9 18 1003.1 1003.1 0.0
27/11:30am 18.3 14.1 -1.0 27 8.2 WNW 11 22 6 12 1003.5 1003.5 0.0
27/11:00am 17.7 13.7 0.4 31 7.6 NW 11 22 6 12 1003.9 1003.9 0.0
27/10:30am 16.7 12.4 1.2 35 6.8 NW 13 24 7 13 1004.5 1004.5 0.0
27/10:00am 16.3 12.0 1.2 36 6.6 NW 13 20 7 11 1004.9 1004.9 0.0
27/09:30am 15.9 12.6 2.3 40 6.1 NW 9 19 5 10 1005.0 1005.0 0.0
27/09:00am 15.2 12.6 4.3 48 5.1 NW 7 17 4 9 1005.1 1005.1 0.0
27/08:30am 14.4 11.9 4.7 52 4.5 NW 7 13 4 7 1005.0 1005.0 0.0
27/08:00am 13.0 10.9 5.7 61 3.4 NNW 6 15 3 8 1004.9 1004.9 0.0
27/07:30am 8.7 6.8 4.7 76 1.8 NNW 4 7 2 4 1004.7 1004.7 0.0
27/07:00am 9.3 7.4 4.7 73 2.1 NW 4 7 2 4 1004.4 1004.4 0.0
27/06:30am 9.4 7.1 4.6 72 2.1 NW 6 7 3 4 1004.0 1004.0 0.0
27/06:00am 8.1 5.9 5.4 83 1.2 NW 6 9 3 5 1003.8 1003.8 0.0
27/05:30am 6.1 3.9 5.2 94 0.4 NNW 6 11 3 6 1003.5 1003.5 0.0
27/05:00am 4.9 3.2 4.2 95 0.3 NW 2 4 1 2 1003.3 1003.3 0.0
27/04:30am 5.4 4.2 4.7 95 0.3 CALM 0 2 0 1 1003.2 1003.2 0.0
27/04:00am 5.5 4.3 4.8 95 0.3 CALM 0 0 0 0 1003.3 1003.3 0.0
27/03:30am 6.0 4.9 5.1 94 0.4 CALM 0 0 0 0 1003.3 1003.3 0.0
27/03:00am 6.4 5.4 5.7 95 0.3 CALM 0 0 0 0 1003.0 1003.0 0.0
27/02:30am 7.3 6.5 6.6 95 0.3 CALM 0 2 0 1 1003.1 1003.1 0.0
27/02:00am 7.8 7.1 6.9 94 0.4 CALM 0 0 0 0 1003.2 1003.2 0.0
27/01:30am 8.1 7.4 7.0 93 0.5 CALM 0 0 0 0 1003.1 1003.1 0.0
27/01:00am 8.3 7.7 7.2 93 0.5 CALM 0 0 0 0 1002.9 1002.9 0.0
27/12:30am 8.8 8.2 7.6 92 0.6 CALM 0 0 0 0 1003.2 1003.2 0.0
27/12:00am 9.3 8.8 7.9 91 0.7 CALM 0 0 0 0 1003.0 1003.0 0.0
 
Date/Time
EST
Tmp

°C
App
Tmp
°C
Dew
Point
°C
Rel
Hum
%
Delta-T

°C
Wind Press
QNH
hPa
Press
MSL
hPa
Rain
since
9 am
mm
Dir
 
Spd
km/h
Gust
km/h
Spd
kts
Gust
kts
26/11:30pm 9.1 7.7 7.2 88 0.9 N 4 4 2 2 1003.2 1003.2 0.0
26/11:00pm 10.3 9.9 8.2 87 1.0 CALM 0 0 0 0 1003.4 1003.4 0.0
26/10:30pm 10.8 10.0 8.2 84 1.3 NNW 2 6 1 3 1003.4 1003.4 0.0
26/10:00pm 11.9 11.6 8.6 80 1.6 CALM 0 0 0 0 1003.4 1003.4 0.0
26/09:30pm 14.2 13.0 9.4 73 2.5 N 6 7 3 4 1003.6 1003.6 0.0
26/09:00pm 13.8 12.4 8.8 72 2.5 N 6 7 3 4 1003.5 1003.5 0.0
26/08:30pm 14.3 13.4 9.1 71 2.6 NNW 4 7 2 4 1003.6 1003.6 0.0
26/08:00pm 14.5 13.2 9.3 71 2.7 NNW 6 9 3 5 1003.1 1003.1 0.0
26/07:30pm 13.8 12.8 8.8 72 2.5 N 4 6 2 3 1003.2 1003.2 0.0
26/07:00pm 14.8 13.8 8.7 67 3.1 NNE 4 13 2 7 1002.9 1002.9 0.0
26/06:30pm 15.7 14.4 9.1 65 3.4 N 6 11 3 6 1002.8 1002.8 0.0
26/06:00pm 16.6 15.2 8.8 60 4.0 N 6 7 3 4 1002.4 1002.4 0.0
26/05:30pm 17.3 15.3 8.7 57 4.4 NNW 9 20 5 11 1002.2 1002.2 0.0
26/05:00pm 17.8 15.0 8.4 54 4.9 NNW 13 24 7 13 1001.8 1001.8 0.0
26/04:30pm 18.4 15.5 8.1 51 5.3 N 13 24 7 13 1001.8 1001.8 0.0
26/04:00pm 18.9 16.6 7.4 47 5.9 NNW 9 19 5 10 1001.9 1001.9 0.0
26/03:30pm 19.4 16.7 7.2 45 6.2 NNW 11 24 6 13 1002.1 1002.1 0.0
26/03:00pm 19.0 16.4 6.2 43 6.4 N 9 20 5 11 1002.3 1002.3 0.0
26/02:30pm 19.1 16.3 6.9 45 6.1 NNW 11 22 6 12 1002.4 1002.4 0.0
26/02:00pm 18.2 14.5 6.4 46 5.9 N 15 24 8 13 1002.7 1002.7 0.0
26/01:30pm 18.9 15.7 6.7 45 6.1 NNW 13 28 7 15 1003.4 1003.4 0.0
26/01:00pm 17.9 14.2 6.4 47 5.7 NW 15 28 8 15 1003.4 1003.4 0.0
26/12:30pm 17.4 14.7 7.5 52 5.0 NNW 11 20 6 11 1004.2 1004.2 0.0
26/12:00pm 15.5 12.1 7.8 60 3.9 N 15 35 8 19 1003.9 1003.9 0.0
26/11:54am 15.6 12.1 8.8 64 3.5 N 17 30 9 16 1004.4 1004.4 0.0
26/11:30am 15.2 12.7 8.0 62 3.6 NNW 11 24 6 13 1006.4 1006.4 0.0
26/11:00am 15.4 13.2 7.9 61 3.8 NNW 9 24 5 13 1007.5 1007.5 0.0
26/10:30am 15.5 13.5 7.3 58 4.1 N 7 13 4 7 1007.6 1007.6 0.0
26/10:00am 13.7 13.2 10.7 82 1.6 NNW 4 15 2 8 1007.5 1007.5 0.0
26/09:30am 12.9 12.7 10.4 85 1.3 N 2 6 1 3 1007.8 1007.8 0.0
26/09:00am 11.4 11.5 10.1 92 0.7 CALM 0 0 0 0 1008.3 1008.3 1.2
26/08:30am 11.1 11.2 10.0 93 0.6 CALM 0 0 0 0 1009.4 1009.4 1.2
26/08:00am 10.8 10.8 9.7 93 0.6 CALM 0 0 0 0 1009.5 1009.5 1.2
26/07:30am 10.4 10.2 9.2 92 0.6 CALM 0 0 0 0 1009.7 1009.7 1.2
26/07:00am 10.7 10.2 9.3 91 0.7 S 2 6 1 3 1009.9 1009.9 1.2
26/06:30am 10.7 10.2 9.3 91 0.7 ESE 2 6 1 3 1009.9 1009.9 1.0
26/06:00am 11.0 10.2 9.8 92 0.6 W 4 6 2 3 1010.9 1010.9 1.0
26/05:30am 10.9 10.8 9.5 91 0.7 CALM 0 0 0 0 1010.9 1010.9 1.0
26/05:00am 11.4 11.0 9.7 89 0.9 ESE 2 6 1 3 1010.7 1010.7 0.8
26/04:30am 11.6 11.0 9.0 84 1.3 ENE 2 6 1 3 1011.2 1011.2 0.4
26/04:00am 11.0 10.9 9.3 89 0.9 CALM 0 0 0 0 1011.2 1011.2 0.0
26/03:30am 10.7 10.5 9.0 89 0.8 CALM 0 0 0 0 1011.0 1011.0 0.0
26/03:00am 10.0 9.6 8.1 88 0.9 CALM 0 0 0 0 1010.9 1010.9 0.0
26/02:30am 9.6 9.1 7.7 88 0.9 CALM 0 0 0 0 1011.6 1011.6 0.0
26/02:00am 9.3 8.8 7.7 90 0.8 CALM 0 2 0 1 1011.7 1011.7 0.0
26/01:30am 8.8 8.2 7.3 90 0.7 CALM 0 0 0 0 1011.7 1011.7 0.0
26/01:00am 8.5 7.8 7.1 91 0.7 CALM 0 0 0 0 1011.8 1011.8 0.0
26/12:30am 8.2 7.5 6.8 91 0.6 CALM 0 2 0 1 1012.3 1012.3 0.0
26/12:00am 8.0 7.3 6.8 92 0.6 CALM 0 0 0 0 1012.9 1012.9 0.0
 
Date/Time
EST
Tmp

°C
App
Tmp
°C
Dew
Point
°C
Rel
Hum
%
Delta-T

°C
Wind Press
QNH
hPa
Press
MSL
hPa
Rain
since
9 am
mm
Dir
 
Spd
km/h
Gust
km/h
Spd
kts
Gust
kts
25/11:30pm 7.7 6.9 6.3 91 0.6 CALM 0 0 0 0 1013.6 1013.6 0.0
25/11:00pm 7.5 6.6 6.1 91 0.6 CALM 0 0 0 0 1013.5 1013.5 0.0
25/10:30pm 7.5 6.5 5.8 89 0.8 CALM 0 0 0 0 1013.7 1013.7 0.0
25/10:00pm 8.6 7.8 6.7 88 0.9 CALM 0 0 0 0 1013.7 1013.7 0.0
25/09:30pm 8.8 8.0 6.6 86 1.0 CALM 0 0 0 0 1014.2 1014.2 0.0
25/09:00pm 9.4 8.7 7.0 85 1.1 CALM 0 0 0 0 1014.3 1014.3 0.0
25/08:30pm 9.6 8.9 7.0 84 1.2 CALM 0 0 0 0 1014.3 1014.3 0.0
25/08:00pm 9.8 9.1 7.1 83 1.3 CALM 0 0 0 0 1014.2 1014.2 0.0
25/07:30pm 10.0 9.3 6.9 81 1.5 CALM 0 0 0 0 1014.2 1014.2 0.0
25/07:00pm 10.1 9.3 6.4 78 1.7 CALM 0 0 0 0 1014.3 1014.3 0.0
25/06:30pm 11.2 10.5 7.1 76 2.0 CALM 0 0 0 0 1014.0 1014.0 0.0
25/06:00pm 12.0 11.2 6.7 70 2.5 CALM 0 0 0 0 1014.0 1014.0 0.0
25/05:30pm 13.4 12.5 6.0 61 3.5 CALM 0 0 0 0 1013.8 1013.8 0.0
25/05:00pm 15.4 14.5 5.9 53 4.6 CALM 0 2 0 1 1013.6 1013.6 0.0
25/04:30pm 17.1 14.7 5.4 46 5.6 E 7 11 4 6 1013.5 1013.5 0.0
25/04:00pm 18.2 15.3 4.7 41 6.5 E 9 13 5 7 1013.5 1013.5 0.0

Latest Capital City Observations: Canberra | Sydney | Melbourne | Brisbane | Adelaide | Perth | Hobart | Darwin

Other Formats:

Comma delimited format used in spreadsheet applications
http://www.bom.gov.au/fwo/IDN60901/IDN60901.95767.axf

JavaScript Object Notation format (JSON) in row-major order
http://www.bom.gov.au/fwo/IDN60901/IDN60901.95767.json